createdAt,value
2018-07-12T00:01:03.049Z,62.37
2018-07-12T00:03:31.297Z,62.30
2018-07-12T00:05:59.641Z,62.21
2018-07-12T00:08:28.487Z,62.57
2018-07-12T00:10:56.701Z,62.48
2018-07-12T00:13:24.965Z,62.28
2018-07-12T00:15:53.346Z,61.96
2018-07-12T00:18:21.692Z,61.67
2018-07-12T00:20:49.873Z,62.32
2018-07-12T00:23:18.061Z,62.76
2018-07-12T00:25:46.301Z,62.31
2018-07-12T00:28:14.650Z,61.94
2018-07-12T00:30:42.873Z,61.40
2018-07-12T00:33:11.285Z,61.65
2018-07-12T00:35:39.769Z,61.96
2018-07-12T00:38:08.104Z,61.92
2018-07-12T00:40:37.046Z,61.36
2018-07-12T00:43:05.590Z,61.73
2018-07-12T00:45:33.963Z,61.48
2018-07-12T00:48:02.368Z,61.97
2018-07-12T00:50:30.542Z,61.18
2018-07-12T00:52:58.821Z,61.54
2018-07-12T00:55:27.321Z,61.07
2018-07-12T00:57:55.954Z,60.55
2018-07-12T01:00:24.430Z,61.10
2018-07-12T01:02:53.059Z,61.58
2018-07-12T01:05:21.537Z,61.39
2018-07-12T01:07:49.803Z,61.97
2018-07-12T01:10:18.194Z,61.37
2018-07-12T01:12:46.669Z,61.47
2018-07-12T01:15:14.838Z,61.20
2018-07-12T01:17:43.288Z,61.98
2018-07-12T01:20:11.485Z,61.94
2018-07-12T01:22:39.735Z,62.08
2018-07-12T01:25:07.966Z,62.01
2018-07-12T01:27:36.394Z,61.69
2018-07-12T01:30:04.710Z,61.96
2018-07-12T01:32:33.178Z,62.48
2018-07-12T01:35:01.448Z,62.34
2018-07-12T01:37:29.621Z,61.76
2018-07-12T01:39:57.821Z,61.86
2018-07-12T01:42:26.292Z,61.75
2018-07-12T01:44:54.597Z,62.31
2018-07-12T01:47:23.041Z,61.96
2018-07-12T01:49:51.383Z,61.91
2018-07-12T01:52:19.593Z,61.51
2018-07-12T01:54:47.995Z,61.28
2018-07-12T01:57:16.465Z,61.18
2018-07-12T01:59:44.718Z,61.29
2018-07-12T02:02:13.210Z,60.98
2018-07-12T02:04:41.477Z,61.61
2018-07-12T02:07:09.644Z,62.07
2018-07-12T02:09:38.100Z,61.68
2018-07-12T02:12:06.302Z,61.71
2018-07-12T02:14:34.548Z,62.29
2018-07-12T02:17:03.022Z,62.50
2018-07-12T02:19:31.225Z,64.32
2018-07-12T02:21:59.375Z,64.06
2018-07-12T02:24:27.630Z,63.45
2018-07-12T02:26:55.853Z,64.14
2018-07-12T02:29:24.335Z,66.07
2018-07-12T02:31:52.721Z,67.45
2018-07-12T02:34:20.959Z,65.83
2018-07-12T02:36:49.428Z,65.60
2018-07-12T02:39:17.720Z,65.80
2018-07-12T02:41:45.918Z,66.04
2018-07-12T02:44:14.276Z,65.33
2018-07-12T02:46:42.544Z,65.68
2018-07-12T02:49:10.751Z,65.73
2018-07-12T02:51:38.902Z,64.96
2018-07-12T02:54:07.535Z,64.88
2018-07-12T02:56:35.960Z,65.82
2018-07-12T02:59:04.130Z,65.36
2018-07-12T03:01:32.374Z,64.96
2018-07-12T03:04:00.609Z,64.54
2018-07-12T03:06:28.754Z,64.83
2018-07-12T03:08:57.126Z,64.18
2018-07-12T03:11:25.330Z,63.86
2018-07-12T03:13:53.505Z,63.95
2018-07-12T03:16:21.998Z,63.65
2018-07-12T03:18:50.481Z,63.65
2018-07-12T03:21:19.129Z,63.87
2018-07-12T03:23:47.553Z,63.48
2018-07-12T03:26:15.947Z,63.46
2018-07-12T03:28:44.262Z,62.88
2018-07-12T03:31:12.793Z,63.09
2018-07-12T03:33:41.260Z,62.47
2018-07-12T03:36:09.745Z,62.34
2018-07-12T03:38:38.281Z,61.93
2018-07-12T03:41:06.481Z,61.81
2018-07-12T03:43:34.938Z,62.02
2018-07-12T03:46:04.809Z,61.92
2018-07-12T03:48:33.187Z,61.00
2018-07-12T03:51:01.610Z,61.26
2018-07-12T03:53:29.929Z,61.97
2018-07-12T03:55:58.457Z,61.07
2018-07-12T03:58:26.854Z,61.54
2018-07-12T04:00:55.261Z,62.06
2018-07-12T04:03:23.447Z,61.91
2018-07-12T04:05:51.953Z,62.24
2018-07-12T04:08:20.181Z,60.96
2018-07-12T04:10:48.349Z,60.71
2018-07-12T04:13:16.737Z,59.79
2018-07-12T04:15:45.391Z,59.52
2018-07-12T04:18:13.593Z,59.45
2018-07-12T04:20:41.765Z,58.81
2018-07-12T04:23:10.167Z,58.83
2018-07-12T04:25:38.659Z,58.74
2018-07-12T04:28:06.897Z,58.36
2018-07-12T04:30:35.322Z,59.85
2018-07-12T04:33:03.562Z,60.76
2018-07-12T04:35:31.913Z,61.87
2018-07-12T04:38:00.142Z,60.69
2018-07-12T04:40:28.561Z,59.74
2018-07-12T04:42:56.773Z,60.04
2018-07-12T04:45:25.257Z,59.12
2018-07-12T04:47:53.796Z,58.88
2018-07-12T04:50:21.977Z,60.20
2018-07-12T04:52:50.911Z,59.48
2018-07-12T04:55:19.168Z,56.88
2018-07-12T04:57:47.356Z,55.53
2018-07-12T05:00:16.033Z,55.02
2018-07-12T05:02:44.301Z,53.20
2018-07-12T05:05:12.453Z,53.10
2018-07-12T05:07:40.861Z,52.20
2018-07-12T05:10:09.309Z,51.90
2018-07-12T05:12:37.607Z,50.19
2018-07-12T05:15:05.824Z,51.31
2018-07-12T05:17:34.195Z,49.67
2018-07-12T05:20:02.461Z,49.57
2018-07-12T05:22:30.739Z,50.66
2018-07-12T05:24:58.864Z,51.88
2018-07-12T05:27:27.225Z,48.96
2018-07-12T05:29:55.446Z,48.07
2018-07-12T05:32:23.625Z,47.31
2018-07-12T05:34:51.962Z,45.49
2018-07-12T05:37:22.519Z,46.00
2018-07-12T05:39:53.287Z,44.83
2018-07-12T05:42:24.319Z,45.94
2018-07-12T05:44:54.611Z,43.90
2018-07-12T05:47:25.409Z,45.37
2018-07-12T05:49:56.165Z,45.24
2018-07-12T05:52:26.765Z,46.55
2018-07-12T05:54:57.403Z,47.79
2018-07-12T05:57:28.200Z,46.25
2018-07-12T05:59:58.885Z,47.17
2018-07-12T06:02:29.462Z,45.33
2018-07-12T06:04:59.612Z,46.46
2018-07-12T06:07:30.550Z,45.84
2018-07-12T06:10:01.213Z,45.08
2018-07-12T06:12:31.805Z,42.98
2018-07-12T06:15:02.462Z,43.03
2018-07-12T06:17:32.958Z,42.66
2018-07-12T06:20:03.683Z,44.10
2018-07-12T06:22:34.566Z,42.58
2018-07-12T06:25:05.299Z,43.15
2018-07-12T06:27:36.362Z,44.31
2018-07-12T06:30:07.831Z,44.74
2018-07-12T06:32:38.669Z,46.85
2018-07-12T06:35:08.764Z,46.59
2018-07-12T06:37:39.230Z,45.84
2018-07-12T06:40:09.897Z,47.19
2018-07-12T06:42:40.615Z,43.40
2018-07-12T06:45:11.210Z,43.72
2018-07-12T06:47:41.309Z,44.32
2018-07-12T06:50:12.130Z,45.74
2018-07-12T06:52:42.895Z,45.98
2018-07-12T06:55:13.957Z,46.13
2018-07-12T06:57:44.661Z,43.22
2018-07-12T07:00:15.733Z,43.66
2018-07-12T07:02:46.401Z,40.38
2018-07-12T07:05:17.287Z,40.28
2018-07-12T07:07:47.333Z,39.77
2018-07-12T07:10:18.095Z,38.97
2018-07-12T07:12:48.343Z,39.93
2018-07-12T07:15:19.313Z,40.99
2018-07-12T07:17:50.089Z,41.44
2018-07-12T07:20:21.190Z,39.24
2018-07-12T07:22:51.873Z,40.89
2018-07-12T07:25:22.661Z,40.21
2018-07-12T07:27:53.166Z,40.24
2018-07-12T07:30:23.919Z,39.37
2018-07-12T07:32:54.144Z,38.92
2018-07-12T07:35:25.020Z,38.47
2018-07-12T07:37:55.757Z,37.24
2018-07-12T07:40:26.726Z,37.94
2018-07-12T07:42:57.282Z,36.74
2018-07-12T07:45:28.370Z,37.43
2018-07-12T07:47:59.113Z,38.67
2018-07-12T07:50:29.535Z,39.16
2018-07-12T07:53:01.235Z,38.18
2018-07-12T07:55:31.950Z,38.03
2018-07-12T07:58:02.448Z,34.66
2018-07-12T08:00:33.310Z,37.54
2018-07-12T08:03:04.020Z,36.60
2018-07-12T08:05:35.119Z,35.26
2018-07-12T08:08:05.842Z,34.30
2018-07-12T08:10:36.681Z,35.05
2018-07-12T08:13:07.365Z,34.62
2018-07-12T08:15:38.137Z,34.15
2018-07-12T08:18:08.874Z,35.97
2018-07-12T08:20:39.662Z,35.67
2018-07-12T08:23:10.597Z,37.83
2018-07-12T08:25:42.205Z,37.48
2018-07-12T08:28:25.674Z,37.27
2018-07-12T08:30:57.004Z,34.65
2018-07-12T08:33:27.852Z,35.92
2018-07-12T08:35:58.868Z,34.80
2018-07-12T08:38:30.241Z,36.35
2018-07-12T08:41:00.807Z,34.43
2018-07-12T08:43:31.488Z,33.53
2018-07-12T08:46:02.177Z,35.07
2018-07-12T08:48:32.544Z,35.45
2018-07-12T08:51:03.313Z,33.46
2018-07-12T08:53:34.122Z,33.81
2018-07-12T08:56:04.810Z,33.28
2018-07-12T08:58:35.509Z,35.03
2018-07-12T09:01:06.638Z,34.12
2018-07-12T09:03:37.290Z,34.84
2018-07-12T09:06:08.056Z,35.69
2018-07-12T09:08:38.722Z,34.01
2018-07-12T09:11:09.811Z,32.93
2018-07-12T09:13:40.478Z,32.28
2018-07-12T09:16:11.673Z,33.92
2018-07-12T09:18:42.203Z,33.99
2018-07-12T09:21:13.189Z,33.93
2018-07-12T09:23:43.749Z,33.82
2018-07-12T09:26:14.213Z,33.56
2018-07-12T09:28:44.990Z,32.66
2018-07-12T09:31:15.973Z,32.50
2018-07-12T09:33:46.635Z,33.69
2018-07-12T09:36:17.502Z,31.46
2018-07-12T09:38:50.150Z,35.60
2018-07-12T09:41:21.470Z,33.94
2018-07-12T09:43:52.609Z,33.36
2018-07-12T09:46:23.849Z,32.61
2018-07-12T09:48:54.575Z,33.46
2018-07-12T09:51:25.269Z,34.57
2018-07-12T09:53:55.934Z,30.85
2018-07-12T09:56:42.254Z,31.72
2018-07-12T09:59:12.925Z,29.48
2018-07-12T10:01:48.857Z,28.84
2018-07-12T10:04:19.517Z,30.71
2018-07-12T10:06:52.359Z,28.68
2018-07-12T10:09:27.874Z,27.86
2018-07-12T10:12:03.914Z,28.87
2018-07-12T10:14:39.041Z,27.55
2018-07-12T10:17:12.493Z,31.42
2018-07-12T10:19:43.442Z,28.73
2018-07-12T10:22:14.233Z,29.01
2018-07-12T10:24:47.746Z,29.16
2018-07-12T10:27:18.742Z,28.80
2018-07-12T10:29:49.509Z,28.08
2018-07-12T10:32:20.317Z,28.14
2018-07-12T10:34:50.444Z,27.33
2018-07-12T10:37:21.329Z,31.20
2018-07-12T10:39:52.097Z,28.14
2018-07-12T10:42:22.821Z,27.76
2018-07-12T10:44:53.718Z,27.07
2018-07-12T10:47:24.697Z,29.29
2018-07-12T10:49:55.387Z,29.90
2018-07-12T10:52:26.226Z,28.13
2018-07-12T10:54:56.915Z,27.46
2018-07-12T10:57:27.790Z,29.84
2018-07-12T10:59:58.476Z,26.22
2018-07-12T11:02:29.196Z,25.45
2018-07-12T11:04:59.942Z,27.32
2018-07-12T11:07:30.741Z,30.64
2018-07-12T11:10:01.498Z,29.00
2018-07-12T11:12:32.281Z,30.90
2018-07-12T11:15:02.967Z,28.29
2018-07-12T11:17:33.773Z,26.69
2018-07-12T11:20:04.659Z,26.08
2018-07-12T11:22:35.202Z,26.87
2018-07-12T11:25:05.425Z,27.98
2018-07-12T11:27:35.352Z,27.47
2018-07-12T11:30:05.941Z,26.84
2018-07-12T11:32:36.646Z,26.34
2018-07-12T11:35:07.409Z,26.90
2018-07-12T11:37:38.213Z,27.19
2018-07-12T11:40:08.572Z,27.21
2018-07-12T11:42:39.479Z,29.02
2018-07-12T11:45:09.883Z,30.19
2018-07-12T11:47:40.330Z,27.76
2018-07-12T11:50:11.200Z,27.67
2018-07-12T11:52:42.162Z,27.13
2018-07-12T11:55:12.030Z,26.66
2018-07-12T11:57:42.375Z,27.37
2018-07-12T12:00:13.126Z,28.07
2018-07-12T12:02:43.542Z,28.27
2018-07-12T12:05:13.901Z,28.07
2018-07-12T12:07:44.238Z,28.63
2018-07-12T12:10:14.935Z,28.95
2018-07-12T12:12:46.189Z,27.80
2018-07-12T12:15:16.986Z,27.41
2018-07-12T12:17:47.757Z,27.44
2018-07-12T12:20:18.368Z,28.22
2018-07-12T12:22:49.159Z,25.96
2018-07-12T12:25:20.081Z,26.93
2018-07-12T12:27:50.415Z,24.25
2018-07-12T12:30:20.866Z,26.57
2018-07-12T12:32:51.221Z,25.04
2018-07-12T12:35:21.886Z,27.43
2018-07-12T12:37:52.290Z,26.33
2018-07-12T12:40:23.106Z,26.74
2018-07-12T12:42:53.427Z,25.94
2018-07-12T12:45:23.965Z,25.50
2018-07-12T12:47:54.304Z,25.47
2018-07-12T12:50:24.674Z,26.65
2018-07-12T12:52:55.078Z,26.77
2018-07-12T12:55:25.522Z,27.27
2018-07-12T12:57:55.898Z,26.76
2018-07-12T13:00:25.984Z,25.30
2018-07-12T13:02:56.280Z,27.02
2018-07-12T13:05:26.653Z,27.08
2018-07-12T13:07:57.145Z,27.86
2018-07-12T13:10:27.522Z,27.76
2018-07-12T13:12:58.337Z,26.43
2018-07-12T13:15:28.846Z,26.57
2018-07-12T13:17:59.738Z,27.72
2018-07-12T13:20:30.173Z,27.42
2018-07-12T13:23:01.074Z,29.42
2018-07-12T13:25:31.817Z,27.02
2018-07-12T13:28:02.714Z,27.44
2018-07-12T13:30:33.460Z,25.72
2018-07-12T13:33:04.546Z,26.68
2018-07-12T13:35:35.170Z,25.94
2018-07-12T13:38:06.042Z,26.53
2018-07-12T13:40:36.720Z,26.01
2018-07-12T13:43:07.585Z,26.10
2018-07-12T13:45:38.289Z,24.84
2018-07-12T13:48:09.097Z,26.13
2018-07-12T13:50:39.758Z,27.20
2018-07-12T13:53:10.526Z,27.62
2018-07-12T13:55:40.968Z,27.39
2018-07-12T13:58:11.795Z,26.78
2018-07-12T14:00:42.646Z,26.08
2018-07-12T14:03:13.661Z,27.00
2018-07-12T14:05:44.418Z,28.10
2018-07-12T14:08:15.427Z,28.97
2018-07-12T14:10:45.945Z,28.87
2018-07-12T14:13:16.117Z,27.82
2018-07-12T14:15:46.697Z,29.74
2018-07-12T14:18:17.401Z,29.31
2018-07-12T14:20:47.961Z,30.40
2018-07-12T14:23:18.966Z,29.17
2018-07-12T14:25:49.433Z,28.95
2018-07-12T14:28:20.075Z,29.64
2018-07-12T14:30:50.937Z,31.38
2018-07-12T14:33:21.650Z,28.18
2018-07-12T14:35:52.290Z,28.59
2018-07-12T14:38:22.982Z,28.71
2018-07-12T14:40:52.921Z,29.24
2018-07-12T14:43:23.681Z,27.30
2018-07-12T14:45:54.326Z,25.96
2018-07-12T14:48:25.184Z,28.54
2018-07-12T14:50:55.741Z,28.78
2018-07-12T14:53:26.885Z,31.38
2018-07-12T14:55:57.125Z,30.24
2018-07-12T14:58:27.949Z,30.17
2018-07-12T15:00:58.648Z,30.87
2018-07-12T15:03:29.426Z,31.30
2018-07-12T15:06:00.162Z,30.20
2018-07-12T15:08:31.010Z,29.91
2018-07-12T15:11:01.689Z,31.16
2018-07-12T15:13:32.522Z,32.00
2018-07-12T15:16:03.514Z,30.24
2018-07-12T15:18:34.234Z,30.46
2018-07-12T15:21:04.974Z,30.39
2018-07-12T15:23:36.568Z,31.04
2018-07-12T15:26:07.420Z,30.51
2018-07-12T15:28:39.109Z,30.63
2018-07-12T15:31:09.836Z,30.15
2018-07-12T15:33:40.711Z,31.01
2018-07-12T15:36:11.275Z,31.30
2018-07-12T15:38:42.150Z,30.72
2018-07-12T15:41:12.897Z,30.09
2018-07-12T15:43:43.593Z,30.14
2018-07-12T15:46:14.279Z,31.30
2018-07-12T15:48:45.548Z,32.55
2018-07-12T15:51:16.345Z,31.33
2018-07-12T15:53:47.269Z,32.05
2018-07-12T15:56:18.023Z,31.29
2018-07-12T15:58:48.944Z,31.89
2018-07-12T16:01:19.614Z,31.64
2018-07-12T16:03:50.057Z,33.60
2018-07-12T16:06:20.673Z,32.94
2018-07-12T16:08:51.526Z,32.25
2018-07-12T16:11:22.129Z,33.69
2018-07-12T16:13:52.917Z,32.02
2018-07-12T16:16:23.634Z,35.13
2018-07-12T16:18:54.293Z,32.74
2018-07-12T16:21:24.869Z,34.00
2018-07-12T16:23:55.674Z,32.53
2018-07-12T16:26:25.921Z,33.79
2018-07-12T16:28:56.620Z,33.79
2018-07-12T16:31:27.158Z,35.42
2018-07-12T16:33:57.988Z,34.91
2018-07-12T16:36:28.615Z,34.34
2018-07-12T16:38:59.610Z,35.07
2018-07-12T16:41:30.402Z,34.77
2018-07-12T16:44:01.388Z,34.50
2018-07-12T16:46:32.109Z,33.02
2018-07-12T16:49:02.994Z,34.14
2018-07-12T16:51:33.625Z,33.48
2018-07-12T16:54:04.314Z,34.28
2018-07-12T16:56:37.393Z,36.33
2018-07-12T16:59:08.336Z,34.70
2018-07-12T17:01:39.049Z,34.23
2018-07-12T17:04:09.975Z,35.88
2018-07-12T17:06:40.710Z,36.09
2018-07-12T17:09:11.641Z,34.03
2018-07-12T17:11:42.269Z,35.08
2018-07-12T17:14:13.105Z,35.95
2018-07-12T17:16:43.700Z,37.08
2018-07-12T17:19:14.260Z,37.22
2018-07-12T17:21:45.094Z,36.57
2018-07-12T17:24:15.935Z,35.84
2018-07-12T17:26:46.622Z,35.43
2018-07-12T17:29:17.425Z,35.34
2018-07-12T17:31:48.239Z,35.38
2018-07-12T17:34:19.347Z,35.11
2018-07-12T17:36:50.066Z,34.84
2018-07-12T17:39:21.113Z,34.63
2018-07-12T17:41:51.810Z,34.96
2018-07-12T17:44:22.556Z,35.66
2018-07-12T17:46:53.242Z,36.08
2018-07-12T17:49:24.102Z,35.89
2018-07-12T17:51:54.233Z,36.33
2018-07-12T17:54:25.101Z,37.04
2018-07-12T17:56:55.782Z,37.48
2018-07-12T17:59:26.553Z,38.46
2018-07-12T18:01:57.213Z,38.76
2018-07-12T18:04:27.957Z,39.13
2018-07-12T18:06:58.541Z,40.68
2018-07-12T18:09:28.728Z,40.74
2018-07-12T18:11:59.362Z,41.02
2018-07-12T18:14:30.125Z,40.94
2018-07-12T18:17:00.828Z,40.72
2018-07-12T18:19:31.535Z,41.21
2018-07-12T18:22:02.048Z,42.41
2018-07-12T18:24:34.099Z,42.66
2018-07-12T18:27:04.294Z,41.93
2018-07-12T18:29:35.090Z,43.19
2018-07-12T18:32:05.849Z,43.34
2018-07-12T18:34:36.526Z,43.76
2018-07-12T18:37:07.202Z,43.75
2018-07-12T18:39:38.143Z,43.69
2018-07-12T18:42:08.879Z,44.00
2018-07-12T18:44:39.801Z,44.95
2018-07-12T18:47:10.420Z,44.97
2018-07-12T18:49:41.141Z,45.88
2018-07-12T18:52:11.829Z,45.24
2018-07-12T18:54:42.668Z,46.48
2018-07-12T18:57:13.459Z,44.38
2018-07-12T18:59:44.313Z,44.65
2018-07-12T19:02:14.865Z,45.15
2018-07-12T19:04:45.426Z,44.52
2018-07-12T19:07:16.087Z,44.77
2018-07-12T19:09:46.758Z,44.02
2018-07-12T19:12:17.451Z,45.03
2018-07-12T19:14:48.312Z,44.65
2018-07-12T19:17:19.014Z,44.65
2018-07-12T19:19:49.715Z,44.99
2018-07-12T19:22:20.318Z,45.96
2018-07-12T19:24:51.182Z,45.73
2018-07-12T19:27:21.774Z,45.28
2018-07-12T19:29:52.715Z,45.52
2018-07-12T19:32:23.317Z,45.66
2018-07-12T19:34:54.423Z,45.43
2018-07-12T19:37:25.097Z,46.19
2018-07-12T19:39:56.045Z,45.58
2018-07-12T19:42:26.669Z,45.75
2018-07-12T19:44:57.273Z,46.19
2018-07-12T19:47:27.795Z,46.17
2018-07-12T19:49:58.742Z,46.15
2018-07-12T19:52:29.397Z,45.73
2018-07-12T19:55:00.130Z,45.43
2018-07-12T19:57:30.813Z,46.25
2018-07-12T20:00:01.477Z,46.33
2018-07-12T20:02:32.121Z,45.87
2018-07-12T20:05:02.782Z,45.98
2018-07-12T20:07:33.462Z,53.12
2018-07-12T20:10:04.217Z,54.21
2018-07-12T20:12:34.745Z,55.48
2018-07-12T20:15:05.726Z,56.59
2018-07-12T20:17:36.341Z,56.03
2018-07-12T20:20:08.255Z,54.07
2018-07-12T20:22:38.849Z,53.66
2018-07-12T20:25:09.850Z,53.33
2018-07-12T20:27:40.481Z,53.22
2018-07-12T20:30:11.254Z,53.27
2018-07-12T20:32:42.158Z,53.18
2018-07-12T20:35:12.883Z,54.39
2018-07-12T20:37:43.520Z,53.63
2018-07-12T20:40:14.209Z,53.56
2018-07-12T20:42:44.797Z,53.79
2018-07-12T20:45:15.557Z,53.65
2018-07-12T20:47:46.298Z,52.60
2018-07-12T20:50:17.354Z,52.28
2018-07-12T20:52:47.890Z,52.50
2018-07-12T20:55:18.455Z,52.08
2018-07-12T20:57:49.073Z,52.53
2018-07-12T21:00:19.786Z,52.76
2018-07-12T21:02:50.429Z,53.08
2018-07-12T21:05:21.025Z,53.33
2018-07-12T21:07:51.704Z,52.85
2018-07-12T21:10:22.338Z,52.46
2018-07-12T21:12:52.963Z,52.22
2018-07-12T21:15:23.683Z,52.07
2018-07-12T21:17:54.330Z,52.03
2018-07-12T21:20:25.189Z,51.80
2018-07-12T21:22:55.829Z,54.04
2018-07-12T21:25:27.681Z,54.33
2018-07-12T21:27:58.396Z,55.20
2018-07-12T21:30:29.013Z,56.65
2018-07-12T21:32:59.565Z,57.62
2018-07-12T21:35:30.488Z,60.21
2018-07-12T21:38:01.081Z,59.68
2018-07-12T21:40:32.068Z,58.68
2018-07-12T21:43:02.529Z,58.10
2018-07-12T21:45:33.334Z,57.56
2018-07-12T21:48:03.797Z,57.61
2018-07-12T21:50:34.370Z,58.09
2018-07-12T21:53:05.058Z,57.74
2018-07-12T21:55:35.309Z,57.96
2018-07-12T21:58:05.881Z,56.92
2018-07-12T22:00:36.533Z,57.02
2018-07-12T22:03:07.254Z,57.56
2018-07-12T22:05:37.939Z,56.70
2018-07-12T22:08:16.344Z,57.44
2018-07-12T22:10:48.071Z,57.11
2018-07-12T22:13:19.557Z,57.24
2018-07-12T22:15:50.250Z,56.81
2018-07-12T22:18:21.276Z,55.97
2018-07-12T22:20:52.045Z,56.49
2018-07-12T22:23:22.975Z,56.27
2018-07-12T22:25:53.577Z,57.04
2018-07-12T22:28:24.437Z,57.11
2018-07-12T22:30:54.994Z,57.65
2018-07-12T22:33:25.628Z,58.15
2018-07-12T22:35:56.253Z,57.57
2018-07-12T22:38:26.941Z,58.18
2018-07-12T22:40:57.478Z,58.47
2018-07-12T22:43:28.118Z,58.22
2018-07-12T22:45:58.737Z,58.59
2018-07-12T22:48:29.716Z,58.67
2018-07-12T22:51:00.091Z,58.77
2018-07-12T22:53:30.801Z,58.30
2018-07-12T22:56:02.382Z,57.72
2018-07-12T22:58:33.163Z,57.46
2018-07-12T23:01:03.841Z,57.05
2018-07-12T23:03:34.597Z,57.26
2018-07-12T23:06:05.194Z,57.48
2018-07-12T23:08:35.902Z,57.35
2018-07-12T23:11:06.562Z,57.43
2018-07-12T23:13:37.254Z,56.53
2018-07-12T23:16:07.906Z,57.49
2018-07-12T23:18:38.962Z,57.99
2018-07-12T23:21:09.559Z,57.84
2018-07-12T23:23:40.394Z,57.71
2018-07-12T23:26:12.694Z,58.38
2018-07-12T23:28:43.389Z,58.42
2018-07-12T23:31:14.156Z,58.27
2018-07-12T23:33:44.938Z,58.28
2018-07-12T23:36:15.621Z,58.73
2018-07-12T23:38:46.315Z,59.22
2018-07-12T23:41:16.485Z,59.87
2018-07-12T23:43:47.085Z,59.65
2018-07-12T23:46:17.553Z,59.67
2018-07-12T23:48:48.299Z,61.44
2018-07-12T23:51:19.149Z,61.56
2018-07-12T23:53:50.113Z,62.73
2018-07-12T23:56:20.776Z,65.61
2018-07-12T23:58:51.612Z,65.22
